createdAt,value
2023-08-29T00:10:44.850Z,13
2023-08-29T00:39:07.021Z,11
2023-08-29T01:07:45.490Z,13
2023-08-29T01:36:11.342Z,18
2023-08-29T02:04:34.990Z,18
2023-08-29T02:33:11.548Z,20
2023-08-29T03:01:36.515Z,20
2023-08-29T03:29:57.755Z,20
2023-08-29T03:58:05.432Z,19
2023-08-29T04:26:25.727Z,19
2023-08-29T04:55:12.193Z,20
2023-08-29T05:23:54.388Z,21
2023-08-29T05:52:17.253Z,22
2023-08-29T06:20:34.131Z,23
2023-08-29T06:48:53.854Z,23
2023-08-29T07:17:16.092Z,21
2023-08-29T07:45:31.309Z,19
2023-08-29T08:14:02.145Z,18
2023-08-29T08:42:44.823Z,19
2023-08-29T09:11:02.053Z,18
2023-08-29T09:39:58.220Z,19
2023-08-29T10:08:37.882Z,13
2023-08-29T10:37:18.211Z,14
2023-08-29T11:05:51.724Z,14
2023-08-29T11:34:24.136Z,13
2023-08-29T12:02:44.535Z,11
2023-08-29T12:30:41.992Z,9
2023-08-29T12:58:48.820Z,7
2023-08-29T13:26:48.493Z,10
2023-08-29T13:55:24.501Z,10
2023-08-29T14:23:35.739Z,10
2023-08-29T14:52:07.049Z,8
2023-08-29T15:20:04.382Z,10
2023-08-29T15:48:17.953Z,7
2023-08-29T16:16:33.453Z,7
2023-08-29T16:44:44.004Z,6
2023-08-29T17:13:03.937Z,6
2023-08-29T17:41:29.299Z,7
2023-08-29T18:09:43.579Z,7
2023-08-29T18:38:13.189Z,10
2023-08-29T19:06:36.287Z,15
2023-08-29T19:35:12.425Z,18
2023-08-29T20:03:45.561Z,18
2023-08-29T20:32:08.149Z,18
2023-08-29T21:00:32.123Z,14
2023-08-29T21:29:13.264Z,13
2023-08-29T21:57:43.567Z,13
2023-08-29T22:26:19.402Z,13
2023-08-29T22:54:58.833Z,13
2023-08-29T23:23:57.043Z,13
2023-08-29T23:52:45.808Z,13
